Time;durP1;ratioP1;P1;durP2;ratioP2;P2;SDS_P1;SDS_P2;PMS_P1;PMS_P2;Temp;Humidity;BMP_temperature;BMP_pressure;BME280_temperature;BME280_humidity;BME280_pressure;Samples;Min_cycle;Max_cycle;Signal;HPM_P1;HPM_P2
2022/09/04 00:00:19;;;;;;;5.15;3.65;;;;;;;;;;5157166;27;20026;-59
2022/09/04 00:03:04;;;;;;;5.65;4.53;;;;;;;;;;5156659;27;20106;-59
2022/09/04 00:05:30;;;;;;;4.95;3.72;;;;;;;;;;5156531;27;20574;-59
2022/09/04 00:08:01;;;;;;;4.60;3.80;;;;;;;;;;5156413;27;20101;-59
2022/09/04 00:10:28;;;;;;;7.75;3.20;;;;;;;;;;5156665;27;20026;-59
2022/09/04 00:13:14;;;;;;;5.57;3.72;;;;;;;;;;5156263;27;20026;-59
2022/09/04 00:15:43;;;;;;;6.40;3.65;;;;;;;;;;5156832;27;20147;-59
2022/09/04 00:18:13;;;;;;;4.22;3.78;;;;;;;;;;5156473;27;20038;-59
2022/09/04 00:20:46;;;;;;;6.60;3.77;;;;;;;;;;5155955;27;20349;-59
2022/09/04 00:23:15;;;;;;;5.90;4.50;;;;;;;;;;5156922;27;20031;-59
2022/09/04 00:25:56;;;;;;;6.50;4.22;;;;;;;;;;5156403;27;20018;-59
2022/09/04 00:28:31;;;;;;;6.88;4.63;;;;;;;;;;5156018;27;20050;-59
2022/09/04 00:31:12;;;;;;;5.53;3.75;;;;;;;;;;5156568;27;20364;-59
2022/09/04 00:33:40;;;;;;;4.72;3.80;;;;;;;;;;5156795;27;20035;-59
2022/09/04 00:36:06;;;;;;;5.43;4.18;;;;;;;;;;5155894;27;20432;-59
2022/09/04 00:38:39;;;;;;;4.70;3.85;;;;;;;;;;5156492;27;20071;-59
2022/09/04 00:41:24;;;;;;;5.38;3.90;;;;;;;;;;5156460;27;20044;-59
2022/09/04 00:43:56;;;;;;;4.43;3.70;;;;;;;;;;5155776;27;20037;-59
2022/09/04 00:46:36;;;;;;;4.20;3.65;;;;;;;;;;5155719;27;20480;-59
2022/09/04 00:49:21;;;;;;;4.40;3.83;;;;;;;;;;5156268;27;20023;-59
2022/09/04 00:52:05;;;;;;;4.53;3.90;;;;;;;;;;5155734;27;20556;-59
2022/09/04 00:54:43;;;;;;;6.38;4.57;;;;;;;;;;5155726;27;20372;-59
2022/09/04 00:57:30;;;;;;;7.18;4.70;;;;;;;;;;5155598;27;20046;-59
2022/09/04 01:00:03;;;;;;;7.80;4.05;;;;;;;;;;5155944;27;20038;-59
2022/09/04 01:02:50;;;;;;;7.55;4.38;;;;;;;;;;5155404;27;20472;-59
2022/09/04 01:05:39;;;;;;;5.97;4.30;;;;;;;;;;5156106;27;20027;-59
2022/09/04 01:08:06;;;;;;;6.30;4.90;;;;;;;;;;5155281;27;20018;-59
2022/09/04 01:10:40;;;;;;;5.47;4.85;;;;;;;;;;5155434;27;20075;-59
2022/09/04 01:13:15;;;;;;;5.75;5.10;;;;;;;;;;5155434;27;20094;-59
2022/09/04 01:15:44;;;;;;;5.82;5.15;;;;;;;;;;5156020;27;20054;-59
2022/09/04 01:18:13;;;;;;;8.55;6.10;;;;;;;;;;5155394;27;20054;-58
2022/09/04 01:20:39;;;;;;;6.90;5.43;;;;;;;;;;5155723;27;20051;-59
2022/09/04 01:23:05;;;;;;;4.78;4.18;;;;;;;;;;5155712;27;20073;-59
2022/09/04 01:25:31;;;;;;;5.35;4.57;;;;;;;;;;5155594;27;20023;-59
2022/09/04 01:28:09;;;;;;;6.30;4.82;;;;;;;;;;5155368;27;20015;-59
2022/09/04 01:31:10;;;;;;;5.57;4.30;;;;;;;;;;5155554;27;20026;-59
2022/09/04 01:33:47;;;;;;;8.40;4.70;;;;;;;;;;5111991;28;20202;-59
2022/09/04 01:36:21;;;;;;;5.72;4.28;;;;;;;;;;5149669;27;20039;-59
2022/09/04 01:38:52;;;;;;;5.68;4.90;;;;;;;;;;5155243;27;20038;-59
2022/09/04 01:41:21;;;;;;;6.07;5.00;;;;;;;;;;5155738;27;20078;-59
2022/09/04 01:43:47;;;;;;;5.93;4.53;;;;;;;;;;5155666;27;20117;-59
2022/09/04 01:46:14;;;;;;;6.85;5.22;;;;;;;;;;5155352;27;20018;-59
2022/09/04 01:48:54;;;;;;;5.50;4.63;;;;;;;;;;5155917;27;20033;-59
2022/09/04 01:51:42;;;;;;;7.23;5.63;;;;;;;;;;5155732;27;20070;-59
2022/09/04 01:54:12;;;;;;;5.55;5.03;;;;;;;;;;5155435;27;20049;-59
2022/09/04 01:56:44;;;;;;;7.88;5.93;;;;;;;;;;5155091;27;20468;-59
2022/09/04 01:59:25;;;;;;;7.50;6.25;;;;;;;;;;5155405;27;20030;-59
2022/09/04 02:02:20;;;;;;;5.82;4.65;;;;;;;;;;5155026;27;20027;-59
2022/09/04 02:04:46;;;;;;;7.22;4.53;;;;;;;;;;5098981;27;20051;-59
2022/09/04 02:07:20;;;;;;;9.88;5.00;;;;;;;;;;5155301;27;20027;-59
2022/09/04 02:09:53;;;;;;;5.90;4.45;;;;;;;;;;5155515;27;20031;-59
2022/09/04 02:12:34;;;;;;;5.18;4.57;;;;;;;;;;5156072;27;20353;-59
2022/09/04 02:15:05;;;;;;;5.13;4.55;;;;;;;;;;5154866;27;20468;-59
2022/09/04 02:17:44;;;;;;;5.68;4.30;;;;;;;;;;5155725;27;20048;-59
2022/09/04 02:20:22;;;;;;;5.78;3.72;;;;;;;;;;5155272;27;20025;-59
2022/09/04 02:23:02;;;;;;;3.92;3.30;;;;;;;;;;5159093;27;20118;-59
2022/09/04 02:25:30;;;;;;;4.30;3.10;;;;;;;;;;5158816;27;20466;-59
2022/09/04 02:28:05;;;;;;;4.50;2.78;;;;;;;;;;5158076;27;20491;-59
2022/09/04 02:30:37;;;;;;;4.50;3.20;;;;;;;;;;5158786;27;20025;-59
2022/09/04 02:33:09;;;;;;;3.95;3.15;;;;;;;;;;5158930;27;20030;-59
2022/09/04 02:35:34;;;;;;;4.93;3.28;;;;;;;;;;5158332;27;20026;-59
2022/09/04 02:38:07;;;;;;;4.63;3.38;;;;;;;;;;5158273;27;20420;-59
2022/09/04 02:40:54;;;;;;;5.82;3.00;;;;;;;;;;5158223;27;20479;-59
2022/09/04 02:43:26;;;;;;;4.38;3.13;;;;;;;;;;5158153;27;20161;-59
2022/09/04 02:46:10;;;;;;;5.43;3.13;;;;;;;;;;5158080;27;20033;-59
2022/09/04 02:48:50;;;;;;;4.22;3.67;;;;;;;;;;5157991;27;20467;-59
2022/09/04 02:51:23;;;;;;;4.03;3.05;;;;;;;;;;5158061;27;20053;-59
2022/09/04 02:54:01;;;;;;;5.65;2.83;;;;;;;;;;5158215;27;20027;-59
2022/09/04 02:56:39;;;;;;;5.18;3.15;;;;;;;;;;5157863;27;20472;-59
2022/09/04 02:59:24;;;;;;;4.45;3.72;;;;;;;;;;5157961;27;20027;-59
2022/09/04 03:01:59;;;;;;;5.25;4.05;;;;;;;;;;5158381;27;20026;-59
2022/09/04 03:04:29;;;;;;;6.22;4.25;;;;;;;;;;5158253;27;20409;-59
2022/09/04 03:07:01;;;;;;;5.35;4.38;;;;;;;;;;5157626;27;20021;-59
2022/09/04 03:09:46;;;;;;;6.38;3.38;;;;;;;;;;5157352;27;20106;-59
2022/09/04 03:12:13;;;;;;;4.55;3.53;;;;;;;;;;5157545;27;20449;-59
2022/09/04 03:14:45;;;;;;;3.72;2.97;;;;;;;;;;5157526;27;20034;-59
2022/09/04 03:17:15;;;;;;;4.30;2.80;;;;;;;;;;5157439;27;20025;-59
2022/09/04 03:19:41;;;;;;;4.43;2.75;;;;;;;;;;5157479;27;20072;-59
2022/09/04 03:22:11;;;;;;;4.35;2.97;;;;;;;;;;5157631;27;20022;-59
2022/09/04 03:24:57;;;;;;;4.38;2.45;;;;;;;;;;5157708;27;20018;-59
2022/09/04 03:27:24;;;;;;;5.03;3.13;;;;;;;;;;5157524;27;20072;-59
2022/09/04 03:30:05;;;;;;;4.05;3.20;;;;;;;;;;5157267;27;20040;-59
2022/09/04 03:32:31;;;;;;;7.72;2.72;;;;;;;;;;5156693;27;20042;-59
2022/09/04 03:35:00;;;;;;;3.63;2.72;;;;;;;;;;5157799;27;20018;-59
2022/09/04 03:37:37;;;;;;;3.67;2.80;;;;;;;;;;5157191;27;20030;-59
2022/09/04 03:40:17;;;;;;;3.30;2.63;;;;;;;;;;5157468;27;20031;-59
2022/09/04 03:43:02;;;;;;;3.13;2.80;;;;;;;;;;5157372;27;20035;-59
2022/09/04 03:45:30;;;;;;;3.05;2.28;;;;;;;;;;5157000;27;20023;-59
2022/09/04 03:48:08;;;;;;;3.78;2.25;;;;;;;;;;5156881;27;20105;-59
2022/09/04 03:50:47;;;;;;;3.80;3.00;;;;;;;;;;5157026;27;20129;-59
2022/09/04 03:53:17;;;;;;;2.85;2.42;;;;;;;;;;5156858;27;20105;-59
2022/09/04 03:56:02;;;;;;;3.45;2.47;;;;;;;;;;5156761;27;20433;-59
2022/09/04 03:58:43;;;;;;;3.88;2.47;;;;;;;;;;5157017;27;20038;-59
2022/09/04 04:01:16;;;;;;;3.20;2.60;;;;;;;;;;5156742;27;20034;-59
2022/09/04 04:03:42;;;;;;;2.90;2.40;;;;;;;;;;5156548;27;20118;-59
2022/09/04 04:06:28;;;;;;;3.65;2.65;;;;;;;;;;5156856;27;20056;-59
2022/09/04 04:09:23;;;;;;;4.10;2.38;;;;;;;;;;5156457;27;20027;-59
2022/09/04 04:12:09;;;;;;;3.88;2.35;;;;;;;;;;5142904;27;20034;-59
2022/09/04 04:14:45;;;;;;;5.50;2.70;;;;;;;;;;5157016;27;20353;-58
2022/09/04 04:17:23;;;;;;;5.53;2.60;;;;;;;;;;5156695;27;20023;-59
2022/09/04 04:19:52;;;;;;;4.28;3.30;;;;;;;;;;5156349;27;20045;-59
2022/09/04 04:22:30;;;;;;;4.95;2.50;;;;;;;;;;5156500;27;20401;-59
2022/09/04 04:25:08;;;;;;;2.50;1.77;;;;;;;;;;5156525;27;20381;-59
2022/09/04 04:27:51;;;;;;;3.50;2.55;;;;;;;;;;5155971;27;20472;-59
2022/09/04 04:30:18;;;;;;;3.88;2.80;;;;;;;;;;5155909;27;20464;-59
2022/09/04 04:33:07;;;;;;;3.40;2.38;;;;;;;;;;5156108;27;20027;-59
2022/09/04 04:35:48;;;;;;;3.33;2.42;;;;;;;;;;5156658;27;20368;-59
2022/09/04 04:38:19;;;;;;;2.95;2.10;;;;;;;;;;5156057;27;20396;-59
2022/09/04 04:40:45;;;;;;;;;;;;;;;;;;5156779;27;20023;-59
2022/09/04 04:43:11;;;;;;;3.22;2.47;;;;;;;;;;5155660;27;19918;-59
2022/09/04 04:45:50;;;;;;;3.05;2.25;;;;;;;;;;5156448;27;20372;-59
2022/09/04 04:48:27;;;;;;;3.13;2.30;;;;;;;;;;5155941;27;20023;-59
2022/09/04 04:51:11;;;;;;;4.93;2.80;;;;;;;;;;5156181;27;20369;-59
2022/09/04 04:53:49;;;;;;;3.75;2.50;;;;;;;;;;5156366;27;20433;-59
2022/09/04 04:56:18;;;;;;;3.25;2.90;;;;;;;;;;5155804;27;20058;-59
2022/09/04 04:58:52;;;;;;;3.83;3.05;;;;;;;;;;5155712;27;20149;-59
2022/09/04 05:01:33;;;;;;;6.13;2.63;;;;;;;;;;5155966;27;20076;-59
2022/09/04 05:04:19;;;;;;;3.40;2.85;;;;;;;;;;5155890;27;20406;-59
2022/09/04 05:06:48;;;;;;;4.07;3.08;;;;;;;;;;5123617;27;20052;-59
2022/09/04 05:09:33;;;;;;;4.35;3.05;;;;;;;;;;5155578;27;20067;-59
2022/09/04 05:12:06;;;;;;;3.35;2.83;;;;;;;;;;5155539;27;20464;-59
2022/09/04 05:14:38;;;;;;;3.92;2.55;;;;;;;;;;5156008;27;20026;-59
2022/09/04 05:17:16;;;;;;;3.67;2.63;;;;;;;;;;5155242;27;20460;-59
2022/09/04 05:19:47;;;;;;;7.75;2.80;;;;;;;;;;5155446;27;20038;-59
2022/09/04 05:22:31;;;;;;;3.40;2.55;;;;;;;;;;5155687;27;20027;-59
2022/09/04 05:25:15;;;;;;;3.40;2.67;;;;;;;;;;5155475;27;20038;-59
2022/09/04 05:28:02;;;;;;;4.20;2.53;;;;;;;;;;5155718;27;20097;-59
2022/09/04 05:30:48;;;;;;;4.43;3.22;;;;;;;;;;5155179;27;20026;-58
2022/09/04 05:33:22;;;;;;;2.33;1.85;;;;;;;;;;5155739;27;20027;-59
2022/09/04 05:35:55;;;;;;;3.50;3.00;;;;;;;;;;5155421;27;20045;-59
2022/09/04 05:38:27;;;;;;;3.55;2.70;;;;;;;;;;5155629;27;20029;-59
2022/09/04 05:41:00;;;;;;;3.72;2.13;;;;;;;;;;5155360;27;20026;-59
2022/09/04 05:43:35;;;;;;;2.88;2.08;;;;;;;;;;5155187;27;20404;-59
2022/09/04 05:46:20;;;;;;;6.00;2.42;;;;;;;;;;5155209;27;20079;-59
2022/09/04 05:48:46;;;;;;;3.47;2.25;;;;;;;;;;5155211;27;20031;-59
2022/09/04 05:51:50;;;;;;;3.35;2.53;;;;;;;;;;5155087;27;20043;-59
2022/09/04 05:54:16;;;;;;;3.25;2.40;;;;;;;;;;5091454;28;20506;-59
2022/09/04 05:57:02;;;;;;;3.15;2.70;;;;;;;;;;5095573;28;20027;-59
2022/09/04 05:59:33;;;;;;;2.90;2.17;;;;;;;;;;5133736;27;20126;-59
2022/09/04 06:02:00;;;;;;;3.72;2.92;;;;;;;;;;5159356;27;20054;-59
2022/09/04 06:04:26;;;;;;;3.80;2.33;;;;;;;;;;5159487;27;20038;-59
2022/09/04 06:07:04;;;;;;;3.22;2.45;;;;;;;;;;5159459;27;20030;-59
2022/09/04 06:09:49;;;;;;;3.10;2.40;;;;;;;;;;5158867;27;20019;-59
2022/09/04 06:12:27;;;;;;;3.28;2.42;;;;;;;;;;5158850;27;20034;-59
2022/09/04 06:15:05;;;;;;;2.85;2.40;;;;;;;;;;5159195;27;20023;-59
2022/09/04 06:17:31;;;;;;;4.43;3.03;;;;;;;;;;5159394;27;20027;-59
2022/09/04 06:20:00;;;;;;;4.13;2.92;;;;;;;;;;5158388;27;20026;-59
2022/09/04 06:22:41;;;;;;;6.57;3.10;;;;;;;;;;5158595;27;20217;-59
2022/09/04 06:25:07;;;;;;;3.45;2.60;;;;;;;;;;5158993;27;20014;-59
2022/09/04 06:27:52;;;;;;;4.07;3.20;;;;;;;;;;5158583;27;20026;-59
2022/09/04 06:30:18;;;;;;;4.68;3.55;;;;;;;;;;5158572;27;20034;-59
2022/09/04 06:32:56;;;;;;;5.78;2.97;;;;;;;;;;5158486;27;20414;-59
2022/09/04 06:35:29;;;;;;;5.05;2.80;;;;;;;;;;5158971;27;20023;-59
2022/09/04 06:38:01;;;;;;;5.05;3.60;;;;;;;;;;5158965;27;20049;-59
2022/09/04 06:40:46;;;;;;;2.97;2.53;;;;;;;;;;5158049;27;20026;-59
2022/09/04 06:43:12;;;;;;;4.38;3.33;;;;;;;;;;5158488;27;20080;-59
2022/09/04 06:45:39;;;;;;;4.25;3.00;;;;;;;;;;5158523;27;20034;-59
2022/09/04 06:48:05;;;;;;;3.67;3.30;;;;;;;;;;5158575;27;20109;-59
2022/09/04 06:50:36;;;;;;;3.42;2.65;;;;;;;;;;5157634;27;20455;-59
2022/09/04 06:53:29;;;;;;;5.43;3.65;;;;;;;;;;5158934;27;20054;-59
2022/09/04 06:56:14;;;;;;;4.88;3.20;;;;;;;;;;5155368;27;20031;-59
2022/09/04 06:58:58;;;;;;;2.85;2.40;;;;;;;;;;5157961;27;20095;-59
2022/09/04 07:01:24;;;;;;;5.25;2.53;;;;;;;;;;5157908;27;20023;-59
2022/09/04 07:04:06;;;;;;;6.45;3.28;;;;;;;;;;5158255;27;20168;-59
2022/09/04 07:06:47;;;;;;;4.75;3.35;;;;;;;;;;5156899;27;20376;-59
2022/09/04 07:09:33;;;;;;;4.07;3.15;;;;;;;;;;5157684;27;20019;-59
2022/09/04 07:12:10;;;;;;;4.43;3.72;;;;;;;;;;5146903;27;20035;-59
2022/09/04 07:14:55;;;;;;;3.97;3.33;;;;;;;;;;5158215;27;20037;-59
2022/09/04 07:17:27;;;;;;;3.45;2.60;;;;;;;;;;5157579;27;20026;-59
2022/09/04 07:20:14;;;;;;;5.10;3.83;;;;;;;;;;5157558;27;20023;-59
2022/09/04 07:22:56;;;;;;;3.85;3.45;;;;;;;;;;5157391;27;20038;-59
2022/09/04 07:25:25;;;;;;;4.13;3.47;;;;;;;;;;5157366;27;20056;-59
2022/09/04 07:27:54;;;;;;;4.75;3.47;;;;;;;;;;5157565;27;20011;-59
2022/09/04 07:30:21;;;;;;;6.03;3.20;;;;;;;;;;5157269;27;20113;-59
2022/09/04 07:32:53;;;;;;;4.07;3.17;;;;;;;;;;5157215;27;20030;-59
2022/09/04 07:35:24;;;;;;;4.47;3.33;;;;;;;;;;5157518;27;20030;-59
2022/09/04 07:37:59;;;;;;;6.07;3.20;;;;;;;;;;5157166;27;20110;-59
2022/09/04 07:40:29;;;;;;;3.45;3.05;;;;;;;;;;5156888;27;20035;-59
2022/09/04 07:43:11;;;;;;;5.93;3.60;;;;;;;;;;5157575;27;20027;-59
2022/09/04 07:45:38;;;;;;;4.78;3.90;;;;;;;;;;5156875;27;20022;-59
2022/09/04 07:48:23;;;;;;;3.72;2.97;;;;;;;;;;5156863;27;20022;-59
2022/09/04 07:51:02;;;;;;;4.65;3.28;;;;;;;;;;5156814;27;20456;-59
2022/09/04 07:53:37;;;;;;;3.47;2.58;;;;;;;;;;5157431;27;20031;-59
2022/09/04 07:56:12;;;;;;;3.78;3.17;;;;;;;;;;5157003;27;20022;-59
2022/09/04 07:58:38;;;;;;;3.58;2.85;;;;;;;;;;5156994;27;20030;-59
2022/09/04 08:01:22;;;;;;;5.18;3.88;;;;;;;;;;5156599;27;20369;-59
2022/09/04 08:03:57;;;;;;;3.75;3.05;;;;;;;;;;5157018;27;20023;-59
2022/09/04 08:06:29;;;;;;;4.95;4.18;;;;;;;;;;5156514;27;20030;-59
2022/09/04 08:09:05;;;;;;;3.90;3.20;;;;;;;;;;5157274;27;20031;-60
2022/09/04 08:11:37;;;;;;;4.90;3.30;;;;;;;;;;5156574;27;20023;-59
2022/09/04 08:14:19;;;;;;;5.13;3.45;;;;;;;;;;5156827;27;20022;-59
2022/09/04 08:16:51;;;;;;;8.70;3.70;;;;;;;;;;5156487;27;20468;-59
2022/09/04 08:19:23;;;;;;;5.40;3.40;;;;;;;;;;5156121;27;20023;-59
2022/09/04 08:21:51;;;;;;;4.20;3.05;;;;;;;;;;5156498;27;20051;-59
2022/09/04 08:24:26;;;;;;;5.15;3.42;;;;;;;;;;5156698;27;20073;-59
2022/09/04 08:27:24;;;;;;;5.55;3.92;;;;;;;;;;5155902;27;20460;-59
2022/09/04 08:29:57;;;;;;;3.70;2.75;;;;;;;;;;5121235;27;20122;-59
2022/09/04 08:32:30;;;;;;;5.30;2.83;;;;;;;;;;5156453;27;20042;-59
2022/09/04 08:35:03;;;;;;;3.30;2.25;;;;;;;;;;5156656;27;20026;-59
2022/09/04 08:37:47;;;;;;;3.42;2.35;;;;;;;;;;5156446;27;20015;-59
2022/09/04 08:40:14;;;;;;;3.40;2.17;;;;;;;;;;5155997;27;20027;-59
2022/09/04 08:43:06;;;;;;;2.80;2.28;;;;;;;;;;5155786;27;20034;-59
2022/09/04 08:45:44;;;;;;;5.03;2.53;;;;;;;;;;5131831;27;20038;-59
2022/09/04 08:48:31;;;;;;;3.13;2.17;;;;;;;;;;5155626;27;20014;-59
2022/09/04 08:50:57;;;;;;;2.65;2.03;;;;;;;;;;5155493;27;20047;-59
2022/09/04 08:53:42;;;;;;;2.75;2.08;;;;;;;;;;5155781;27;20026;-59
2022/09/04 08:56:19;;;;;;;2.22;1.83;;;;;;;;;;5155797;27;20027;-59
2022/09/04 08:58:45;;;;;;;3.40;2.55;;;;;;;;;;5156552;27;20034;-59
2022/09/04 09:01:29;;;;;;;3.45;1.77;;;;;;;;;;5155637;27;20019;-59
2022/09/04 09:03:55;;;;;;;3.42;2.10;;;;;;;;;;5155908;27;20452;-59
2022/09/04 09:06:47;;;;;;;3.33;2.28;;;;;;;;;;5155204;27;20037;-59
2022/09/04 09:09:22;;;;;;;2.72;1.80;;;;;;;;;;5131172;27;20031;-59
2022/09/04 09:11:57;;;;;;;2.70;1.70;;;;;;;;;;5155834;27;20019;-59
2022/09/04 09:14:23;;;;;;;2.63;1.50;;;;;;;;;;5155313;27;20106;-59
2022/09/04 09:17:11;;;;;;;3.33;2.17;;;;;;;;;;5155519;27;20026;-59
2022/09/04 09:19:45;;;;;;;2.67;2.08;;;;;;;;;;5155395;27;20480;-59
2022/09/04 09:22:14;;;;;;;2.78;2.05;;;;;;;;;;5155967;27;20027;-59
2022/09/04 09:24:43;;;;;;;4.22;2.20;;;;;;;;;;5156301;27;20035;-59
2022/09/04 09:27:41;;;;;;;2.85;2.10;;;;;;;;;;5155417;27;20143;-59
2022/09/04 09:30:17;;;;;;;3.40;2.30;;;;;;;;;;5157201;27;20114;-59
2022/09/04 09:32:44;;;;;;;4.15;2.22;;;;;;;;;;5159843;27;20027;-59
2022/09/04 09:35:29;;;;;;;4.70;2.13;;;;;;;;;;5159542;27;20061;-59
2022/09/04 09:38:13;;;;;;;2.35;1.60;;;;;;;;;;5159224;27;20367;-59
2022/09/04 09:40:50;;;;;;;5.80;1.90;;;;;;;;;;5159458;27;20105;-59
2022/09/04 09:43:40;;;;;;;3.92;2.67;;;;;;;;;;5159920;27;20118;-59
2022/09/04 09:46:32;;;;;;;2.90;1.63;;;;;;;;;;5159816;27;20079;-59
2022/09/04 09:49:16;;;;;;;3.83;2.42;;;;;;;;;;5159615;27;20354;-59
2022/09/04 09:51:45;;;;;;;4.90;1.92;;;;;;;;;;5159326;27;20460;-59
2022/09/04 09:54:29;;;;;;;3.13;1.70;;;;;;;;;;5159826;27;20057;-59
2022/09/04 09:56:55;;;;;;;6.00;1.70;;;;;;;;;;5159477;27;20184;-59
2022/09/04 09:59:24;;;;;;;5.82;1.88;;;;;;;;;;5159604;27;20428;-59
2022/09/04 10:02:01;;;;;;;2.00;1.40;;;;;;;;;;5159605;27;20018;-59
2022/09/04 10:04:51;;;;;;;2.45;1.70;;;;;;;;;;5159239;27;20038;-59
2022/09/04 10:07:21;;;;;;;2.63;1.88;;;;;;;;;;5159021;27;20097;-59
2022/09/04 10:09:55;;;;;;;2.20;1.38;;;;;;;;;;5158874;27;20019;-59
2022/09/04 10:12:24;;;;;;;4.18;1.95;;;;;;;;;;5158866;27;20030;-59
2022/09/04 10:15:07;;;;;;;2.00;1.40;;;;;;;;;;5158876;27;20046;-59
2022/09/04 10:17:33;;;;;;;2.95;1.73;;;;;;;;;;5158821;27;20019;-59
2022/09/04 10:20:19;;;;;;;1.98;1.10;;;;;;;;;;5158678;27;20026;-59
2022/09/04 10:22:48;;;;;;;2.72;1.38;;;;;;;;;;5158520;27;20469;-59
2022/09/04 10:25:27;;;;;;;2.03;1.08;;;;;;;;;;5158941;27;20034;-59
2022/09/04 10:28:12;;;;;;;2.35;1.40;;;;;;;;;;5158462;27;20019;-59
2022/09/04 10:30:43;;;;;;;2.38;1.23;;;;;;;;;;5158558;27;20023;-59
2022/09/04 10:33:12;;;;;;;1.92;1.25;;;;;;;;;;5158795;27;20015;-59
2022/09/04 10:35:45;;;;;;;1.98;1.25;;;;;;;;;;5158889;27;20027;-59
2022/09/04 10:38:14;;;;;;;2.83;1.20;;;;;;;;;;5158625;27;20369;-59
2022/09/04 10:40:59;;;;;;;3.60;1.38;;;;;;;;;;5157567;27;20062;-59
2022/09/04 10:43:27;;;;;;;2.75;1.50;;;;;;;;;;5158025;27;20483;-59
2022/09/04 10:46:11;;;;;;;3.17;1.63;;;;;;;;;;5158778;27;20019;-59
2022/09/04 10:48:55;;;;;;;1.85;1.17;;;;;;;;;;5158065;27;20026;-59
2022/09/04 10:51:34;;;;;;;2.95;1.52;;;;;;;;;;5157872;27;20038;-59
2022/09/04 10:54:23;;;;;;;3.45;1.17;;;;;;;;;;5158862;27;20101;-59
2022/09/04 10:56:49;;;;;;;1.52;0.93;;;;;;;;;;5157581;27;20066;-59
2022/09/04 10:59:31;;;;;;;1.80;0.82;;;;;;;;;;5157960;27;20027;-59
2022/09/04 11:02:09;;;;;;;2.42;1.25;;;;;;;;;;5158241;27;20019;-59
2022/09/04 11:04:46;;;;;;;3.10;1.10;;;;;;;;;;5157833;27;20031;-59
2022/09/04 11:07:13;;;;;;;1.77;1.13;;;;;;;;;;5157883;27;20413;-59
2022/09/04 11:09:45;;;;;;;1.70;1.02;;;;;;;;;;5157665;27;20023;-59
2022/09/04 11:12:17;;;;;;;1.92;1.08;;;;;;;;;;5158305;27;20030;-59
2022/09/04 11:14:48;;;;;;;1.65;0.88;;;;;;;;;;5158240;27;20022;-59
2022/09/04 11:17:27;;;;;;;1.70;1.10;;;;;;;;;;5157521;27;20101;-59
2022/09/04 11:20:06;;;;;;;1.98;1.05;;;;;;;;;;5157480;27;20503;-59
2022/09/04 11:22:33;;;;;;;1.42;0.93;;;;;;;;;;5157987;27;20155;-59
2022/09/04 11:25:18;;;;;;;2.20;1.23;;;;;;;;;;5157943;27;20342;-59
2022/09/04 11:28:02;;;;;;;3.47;1.50;;;;;;;;;;5157352;27;20027;-59
2022/09/04 11:30:41;;;;;;;2.05;1.02;;;;;;;;;;5157261;27;20042;-59
2022/09/04 11:33:21;;;;;;;1.40;0.80;;;;;;;;;;5157213;27;20038;-59
2022/09/04 11:36:06;;;;;;;1.98;0.90;;;;;;;;;;5157517;27;20027;-59
2022/09/04 11:38:42;;;;;;;1.63;0.88;;;;;;;;;;5157662;27;20030;-59
2022/09/04 11:41:11;;;;;;;1.73;0.90;;;;;;;;;;5157056;27;20026;-59
2022/09/04 11:43:43;;;;;;;1.23;0.80;;;;;;;;;;5157584;27;20388;-59
2022/09/04 11:46:28;;;;;;;2.08;0.88;;;;;;;;;;5157452;27;20030;-59
2022/09/04 11:49:08;;;;;;;1.77;0.88;;;;;;;;;;5156914;27;20378;-59
2022/09/04 11:51:43;;;;;;;1.38;0.80;;;;;;;;;;5156853;27;20134;-59
2022/09/04 11:54:24;;;;;;;2.17;0.80;;;;;;;;;;5157120;27;20451;-59
2022/09/04 11:57:03;;;;;;;1.67;0.63;;;;;;;;;;5156806;27;20418;-59
2022/09/04 11:59:49;;;;;;;2.33;0.90;;;;;;;;;;5156755;27;20025;-59
2022/09/04 12:02:34;;;;;;;2.10;1.02;;;;;;;;;;5157000;27;20356;-59
2022/09/04 12:05:07;;;;;;;1.80;1.00;;;;;;;;;;5157260;27;20035;-59
2022/09/04 12:07:45;;;;;;;1.95;0.98;;;;;;;;;;5156695;27;20041;-59
2022/09/04 12:10:17;;;;;;;1.83;0.80;;;;;;;;;;5156533;27;20026;-59
2022/09/04 12:13:01;;;;;;;2.00;1.10;;;;;;;;;;5156465;27;20078;-59
2022/09/04 12:15:45;;;;;;;1.02;0.52;;;;;;;;;;5156747;27;20098;-59
2022/09/04 12:18:32;;;;;;;3.13;1.20;;;;;;;;;;5156319;27;20359;-59
2022/09/04 12:21:17;;;;;;;2.03;0.90;;;;;;;;;;5156321;27;20106;-59
2022/09/04 12:24:01;;;;;;;1.30;0.70;;;;;;;;;;5156815;27;20041;-59
2022/09/04 12:26:42;;;;;;;1.25;0.60;;;;;;;;;;5156221;27;20031;-59
2022/09/04 12:29:16;;;;;;;1.15;0.70;;;;;;;;;;5156172;27;20022;-59
2022/09/04 12:31:56;;;;;;;1.98;1.00;;;;;;;;;;5156068;27;20034;-59
2022/09/04 12:34:28;;;;;;;1.63;0.88;;;;;;;;;;5156492;27;20026;-59
2022/09/04 12:37:22;;;;;;;3.70;1.20;;;;;;;;;;5155706;27;20018;-59
2022/09/04 12:39:51;;;;;;;1.30;0.80;;;;;;;;;;5156086;27;20509;-59
2022/09/04 12:42:25;;;;;;;1.63;0.75;;;;;;;;;;5155917;27;20019;-59
2022/09/04 12:45:10;;;;;;;2.40;1.23;;;;;;;;;;5156028;27;20053;-59
2022/09/04 12:47:42;;;;;;;1.35;0.98;;;;;;;;;;5156102;27;20033;-59
2022/09/04 12:50:16;;;;;;;1.85;1.10;;;;;;;;;;5155857;27;20027;-59
2022/09/04 12:52:49;;;;;;;1.83;0.98;;;;;;;;;;5156173;27;20043;-59
2022/09/04 12:55:18;;;;;;;1.92;1.15;;;;;;;;;;5156355;27;20030;-59
2022/09/04 12:58:10;;;;;;;1.50;0.90;;;;;;;;;;5156005;27;20067;-59
2022/09/04 13:00:43;;;;;;;1.95;1.02;;;;;;;;;;5155738;27;20023;-59
2022/09/04 13:03:09;;;;;;;1.83;1.13;;;;;;;;;;5155630;27;20113;-59
2022/09/04 13:05:39;;;;;;;2.00;0.95;;;;;;;;;;5155198;27;20054;-59
2022/09/04 13:08:05;;;;;;;1.95;1.10;;;;;;;;;;5156235;27;20439;-59
2022/09/04 13:10:38;;;;;;;1.85;0.73;;;;;;;;;;5155613;27;20046;-59
2022/09/04 13:13:16;;;;;;;2.13;0.77;;;;;;;;;;5155584;27;20026;-59
2022/09/04 13:15:48;;;;;;;2.40;1.17;;;;;;;;;;5155595;27;20029;-59
2022/09/04 13:18:27;;;;;;;2.35;1.02;;;;;;;;;;5155483;27;20019;-59
2022/09/04 13:20:59;;;;;;;2.17;1.00;;;;;;;;;;5155894;27;20019;-59
2022/09/04 13:23:25;;;;;;;1.80;0.77;;;;;;;;;;5155828;27;20038;-59
2022/09/04 13:25:57;;;;;;;2.28;1.10;;;;;;;;;;5155511;27;20027;-59
2022/09/04 13:28:37;;;;;;;4.03;0.93;;;;;;;;;;5155821;27;20111;-59
2022/09/04 13:31:32;;;;;;;2.63;1.40;;;;;;;;;;5156393;27;20041;-59
2022/09/04 13:33:59;;;;;;;2.60;1.10;;;;;;;;;;5153946;27;20058;-59
2022/09/04 13:36:28;;;;;;;2.00;1.15;;;;;;;;;;5155998;27;20338;-59
2022/09/04 13:38:57;;;;;;;2.33;1.13;;;;;;;;;;5155291;27;20075;-59
2022/09/04 13:41:41;;;;;;;2.55;1.20;;;;;;;;;;5155320;27;20102;-60
2022/09/04 13:44:22;;;;;;;2.47;0.82;;;;;;;;;;5155265;27;20059;-59
2022/09/04 13:46:54;;;;;;;1.27;0.70;;;;;;;;;;5155118;27;20026;-59
2022/09/04 13:49:26;;;;;;;1.63;0.80;;;;;;;;;;5155549;27;20027;-59
2022/09/04 13:51:59;;;;;;;2.33;1.23;;;;;;;;;;5155345;27;20042;-59
2022/09/04 13:54:57;;;;;;;1.85;1.10;;;;;;;;;;5155512;27;20041;-59
2022/09/04 13:57:26;;;;;;;2.22;1.25;;;;;;;;;;5120591;27;20038;-59
2022/09/04 13:59:55;;;;;;;1.25;0.75;;;;;;;;;;5155092;27;20018;-59
2022/09/04 14:02:24;;;;;;;2.33;1.00;;;;;;;;;;5155650;27;20050;-59
2022/09/04 14:05:12;;;;;;;3.53;0.90;;;;;;;;;;5155068;27;20468;-59
2022/09/04 14:07:39;;;;;;;2.35;1.10;;;;;;;;;;5155339;27;20058;-59
2022/09/04 14:10:10;;;;;;;2.40;1.08;;;;;;;;;;5155000;27;20022;-59
2022/09/04 14:12:48;;;;;;;2.35;1.08;;;;;;;;;;5154822;27;20022;-59
2022/09/04 14:15:32;;;;;;;3.13;1.30;;;;;;;;;;5155843;27;20065;-59
2022/09/04 14:17:58;;;;;;;2.08;1.05;;;;;;;;;;5159326;27;20023;-59
2022/09/04 14:20:47;;;;;;;2.63;1.38;;;;;;;;;;5158721;27;20023;-59
2022/09/04 14:23:22;;;;;;;2.28;1.23;;;;;;;;;;5150351;27;20039;-59
2022/09/04 14:25:54;;;;;;;1.90;1.30;;;;;;;;;;5158973;27;20023;-59
2022/09/04 14:28:28;;;;;;;1.80;1.00;;;;;;;;;;5158649;27;20071;-59
2022/09/04 14:30:54;;;;;;;1.67;0.88;;;;;;;;;;5159104;27;20067;-59
2022/09/04 14:33:34;;;;;;;2.17;0.95;;;;;;;;;;5159202;27;20031;-59
2022/09/04 14:36:20;;;;;;;2.15;0.95;;;;;;;;;;5158817;27;20060;-59
2022/09/04 14:39:01;;;;;;;2.50;1.02;;;;;;;;;;5158643;27;20053;-59
2022/09/04 14:41:41;;;;;;;8.07;1.17;;;;;;;;;;5158683;27;20031;-59
2022/09/04 14:44:25;;;;;;;2.30;1.13;;;;;;;;;;5158593;27;20058;-59
2022/09/04 14:46:54;;;;;;;2.00;0.90;;;;;;;;;;5158542;27;20035;-59
2022/09/04 14:49:22;;;;;;;2.67;1.00;;;;;;;;;;5158107;27;20018;-59
2022/09/04 14:51:55;;;;;;;1.55;0.93;;;;;;;;;;5158473;27;20049;-59
2022/09/04 14:54:29;;;;;;;1.50;0.80;;;;;;;;;;5158429;27;20034;-59
2022/09/04 14:57:16;;;;;;;1.45;0.80;;;;;;;;;;5158620;27;20466;-59
2022/09/04 14:59:56;;;;;;;1.60;0.98;;;;;;;;;;5157972;27;20506;-59
2022/09/04 15:02:28;;;;;;;1.77;1.08;;;;;;;;;;5158534;27;20038;-59
2022/09/04 15:04:59;;;;;;;1.83;0.95;;;;;;;;;;5158772;27;20421;-59
2022/09/04 15:07:49;;;;;;;1.15;0.63;;;;;;;;;;5158374;27;20357;-59
2022/09/04 15:10:23;;;;;;;4.00;0.88;;;;;;;;;;5158368;27;20027;-59
2022/09/04 15:13:07;;;;;;;1.73;0.85;;;;;;;;;;5158280;27;20091;-59
2022/09/04 15:15:45;;;;;;;1.17;0.77;;;;;;;;;;5157931;27;20102;-59
2022/09/04 15:18:14;;;;;;;1.67;0.90;;;;;;;;;;5157919;27;20015;-59
2022/09/04 15:20:46;;;;;;;1.75;0.98;;;;;;;;;;5157519;27;20034;-59
2022/09/04 15:23:28;;;;;;;1.67;0.98;;;;;;;;;;5158313;27;20027;-59
2022/09/04 15:26:15;;;;;;;2.78;1.25;;;;;;;;;;5157771;27;20066;-59
2022/09/04 15:28:49;;;;;;;2.33;1.33;;;;;;;;;;5124720;27;20038;-59
2022/09/04 15:31:17;;;;;;;1.98;1.17;;;;;;;;;;5157665;27;20491;-59
2022/09/04 15:33:44;;;;;;;4.38;1.45;;;;;;;;;;5158155;27;20015;-59
2022/09/04 15:36:22;;;;;;;1.77;0.98;;;;;;;;;;5157587;27;20025;-59